createdAt,value
2023-03-20T00:02:21.227Z,97168.00
2023-03-20T00:04:48.091Z,97160.00
2023-03-20T00:07:15.316Z,97154.00
2023-03-20T00:09:42.450Z,97167.00
2023-03-20T00:12:16.148Z,97151.00
2023-03-20T00:14:43.058Z,97162.00
2023-03-20T00:17:19.975Z,97160.00
2023-03-20T00:19:46.920Z,97163.00
2023-03-20T00:22:13.665Z,97169.00
2023-03-20T00:24:40.459Z,97165.00
2023-03-20T00:27:12.619Z,97175.00
2023-03-20T00:29:39.430Z,97174.00
2023-03-20T00:32:12.014Z,97170.00
2023-03-20T00:34:39.038Z,97168.00
2023-03-20T00:37:05.793Z,97161.00
2023-03-20T00:39:32.649Z,97165.00
2023-03-20T00:42:06.109Z,97159.00
2023-03-20T00:44:46.333Z,97169.00
2023-03-20T00:47:19.813Z,97168.00
2023-03-20T00:49:50.692Z,97168.00
2023-03-20T00:52:19.699Z,97175.00
2023-03-20T00:54:47.067Z,97166.00
2023-03-20T00:57:21.326Z,97171.00
2023-03-20T01:00:06.647Z,97170.00
2023-03-20T01:02:34.182Z,97165.00
2023-03-20T01:05:02.143Z,97164.00
2023-03-20T01:07:29.033Z,97170.00
2023-03-20T01:09:56.216Z,97163.00
2023-03-20T01:12:23.868Z,97160.00
2023-03-20T01:14:57.071Z,97162.00
2023-03-20T01:17:26.240Z,97151.00
2023-03-20T01:19:53.446Z,97157.00
2023-03-20T01:22:20.773Z,97157.00
2023-03-20T01:24:47.850Z,97161.00
2023-03-20T01:27:20.007Z,97159.00
2023-03-20T01:29:47.356Z,97160.00
2023-03-20T01:32:19.225Z,97155.00
2023-03-20T01:34:46.059Z,97156.00
2023-03-20T01:37:24.887Z,97143.00
2023-03-20T01:39:51.828Z,97159.00
2023-03-20T01:42:18.654Z,97151.00
2023-03-20T01:44:46.729Z,97148.00
2023-03-20T01:47:23.675Z,97150.00
2023-03-20T01:50:26.192Z,97149.00
2023-03-20T01:53:01.873Z,97154.00
2023-03-20T01:55:29.627Z,97145.00
2023-03-20T01:58:00.922Z,97155.00
2023-03-20T02:00:27.787Z,97151.00
2023-03-20T02:02:55.523Z,97150.00
2023-03-20T02:05:23.827Z,97139.00
2023-03-20T02:08:24.723Z,97146.00
2023-03-20T02:10:52.227Z,97141.00
2023-03-20T02:13:19.583Z,97145.00
2023-03-20T02:16:11.459Z,97142.00
2023-03-20T02:18:40.547Z,97148.00
2023-03-20T02:22:05.315Z,97146.00
2023-03-20T02:25:21.998Z,97150.00
2023-03-20T02:28:34.936Z,97145.00
2023-03-20T02:31:16.570Z,97151.00
2023-03-20T02:34:10.690Z,97146.00
2023-03-20T02:36:51.846Z,97148.00
2023-03-20T02:39:47.185Z,97158.00
2023-03-20T02:42:28.881Z,97156.00
2023-03-20T02:45:28.643Z,97158.00
2023-03-20T02:48:38.297Z,97151.00
2023-03-20T02:51:35.904Z,97158.00
2023-03-20T02:54:38.171Z,97164.00
2023-03-20T02:57:32.425Z,97169.00
2023-03-20T03:00:18.332Z,97165.00
2023-03-20T03:03:06.654Z,97174.00
2023-03-20T03:06:00.207Z,97165.00
2023-03-20T03:08:32.356Z,97164.00
2023-03-20T03:11:06.373Z,97166.00
2023-03-20T03:13:38.912Z,97163.00
2023-03-20T03:16:21.205Z,97170.00
2023-03-20T03:18:55.218Z,97169.00
2023-03-20T03:21:23.651Z,97180.00
2023-03-20T03:23:50.430Z,97171.00
2023-03-20T03:26:28.829Z,97175.00
2023-03-20T03:29:05.409Z,97179.00
2023-03-20T03:31:32.930Z,97169.00
2023-03-20T03:34:01.428Z,97173.00
2023-03-20T03:37:28.103Z,97175.00
2023-03-20T03:40:29.481Z,97182.00
2023-03-20T03:43:18.602Z,97170.00
2023-03-20T03:45:55.089Z,97178.00
2023-03-20T03:48:28.367Z,97168.00
2023-03-20T03:51:01.810Z,97176.00
2023-03-20T03:53:40.240Z,97175.00
2023-03-20T03:56:12.140Z,97186.00
2023-03-20T03:59:01.140Z,97183.00
2023-03-20T04:01:29.382Z,97177.00
2023-03-20T04:04:01.506Z,97187.00
2023-03-20T04:06:29.392Z,97184.00
2023-03-20T04:08:56.182Z,97184.00
2023-03-20T04:11:26.068Z,97184.00
2023-03-20T04:13:53.351Z,97187.00
2023-03-20T04:16:22.617Z,97182.00
2023-03-20T04:18:50.257Z,97178.00
2023-03-20T04:21:17.788Z,97186.00
2023-03-20T04:23:45.349Z,97185.00
2023-03-20T04:26:12.253Z,97189.00
2023-03-20T04:28:39.190Z,97194.00
2023-03-20T04:31:06.513Z,97205.00
2023-03-20T04:33:33.370Z,97203.00
2023-03-20T04:36:00.515Z,97203.00
2023-03-20T04:38:27.371Z,97200.00
2023-03-20T04:40:54.160Z,97200.00
2023-03-20T04:43:21.022Z,97199.00
2023-03-20T04:45:48.027Z,97195.00
2023-03-20T04:48:15.276Z,97200.00
2023-03-20T04:50:42.339Z,97200.00
2023-03-20T04:53:09.202Z,97203.00
2023-03-20T04:55:36.369Z,97203.00
2023-03-20T04:58:03.576Z,97193.00
2023-03-20T05:00:30.503Z,97196.00
2023-03-20T05:02:57.514Z,97204.00
2023-03-20T05:05:24.881Z,97195.00
2023-03-20T05:07:52.326Z,97202.00
2023-03-20T05:10:19.713Z,97205.00
2023-03-20T05:12:47.882Z,97213.00
2023-03-20T05:15:14.868Z,97207.00
2023-03-20T05:17:41.702Z,97203.00
2023-03-20T05:20:09.312Z,97209.00
2023-03-20T05:22:36.203Z,97210.00
2023-03-20T05:25:03.548Z,97218.00
2023-03-20T05:27:30.513Z,97223.00
2023-03-20T05:29:57.322Z,97220.00
2023-03-20T05:32:24.088Z,97224.00
2023-03-20T05:34:50.908Z,97224.00
2023-03-20T05:37:17.737Z,97222.00
2023-03-20T05:39:44.505Z,97226.00
2023-03-20T05:42:11.669Z,97225.00
2023-03-20T05:44:38.478Z,97221.00
2023-03-20T05:47:06.043Z,97234.00
2023-03-20T05:49:32.858Z,97229.00
2023-03-20T05:51:59.669Z,97231.00
2023-03-20T05:54:26.632Z,97237.00
2023-03-20T05:56:53.502Z,97234.00
2023-03-20T05:59:20.297Z,97239.00
2023-03-20T06:01:47.063Z,97238.00
2023-03-20T06:04:13.835Z,97252.00
2023-03-20T06:06:41.943Z,97262.00
2023-03-20T06:09:08.748Z,97247.00
2023-03-20T06:11:37.556Z,97261.00
2023-03-20T06:14:04.637Z,97265.00
2023-03-20T06:16:31.400Z,97265.00
2023-03-20T06:18:58.346Z,97263.00
2023-03-20T06:21:25.333Z,97269.00
2023-03-20T06:23:52.258Z,97269.00
2023-03-20T06:26:19.020Z,97276.00
2023-03-20T06:28:45.909Z,97271.00
2023-03-20T06:31:13.228Z,97282.00
2023-03-20T06:33:40.929Z,97277.00
2023-03-20T06:36:08.761Z,97287.00
2023-03-20T06:38:35.606Z,97285.00
2023-03-20T06:41:02.595Z,97289.00
2023-03-20T06:43:29.602Z,97292.00
2023-03-20T06:45:56.575Z,97285.00
2023-03-20T06:48:23.499Z,97291.00
2023-03-20T06:50:51.649Z,97293.00
2023-03-20T06:53:18.697Z,97300.00
2023-03-20T06:55:50.638Z,97293.00
2023-03-20T06:58:17.777Z,97294.00
2023-03-20T07:00:45.001Z,97297.00
2023-03-20T07:03:11.806Z,97288.00
2023-03-20T07:05:41.168Z,97292.00
2023-03-20T07:08:08.291Z,97292.00
2023-03-20T07:10:36.987Z,97297.00
2023-03-20T07:13:05.032Z,97288.00
2023-03-20T07:15:32.940Z,97282.00
2023-03-20T07:18:00.778Z,97276.00
2023-03-20T07:20:27.981Z,97284.00
2023-03-20T07:22:55.582Z,97288.00
2023-03-20T07:25:35.333Z,97294.00
2023-03-20T07:28:10.407Z,97282.00
2023-03-20T07:30:37.798Z,97280.00
2023-03-20T07:33:05.170Z,97289.00
2023-03-20T07:35:33.293Z,97297.00
2023-03-20T07:38:01.137Z,97290.00
2023-03-20T07:40:28.883Z,97289.00
2023-03-20T07:42:56.675Z,97294.00
2023-03-20T07:45:23.962Z,97308.00
2023-03-20T07:47:51.944Z,97315.00
2023-03-20T07:50:18.921Z,97306.00
2023-03-20T07:52:52.223Z,97309.00
2023-03-20T07:55:20.406Z,97300.00
2023-03-20T07:57:52.675Z,97312.00
2023-03-20T08:00:20.558Z,97302.00
2023-03-20T08:02:47.899Z,97299.00
2023-03-20T08:05:15.767Z,97318.00
2023-03-20T08:07:42.988Z,97313.00
2023-03-20T08:10:11.182Z,97320.00
2023-03-20T08:12:38.237Z,97306.00
2023-03-20T08:15:07.038Z,97309.00
2023-03-20T08:17:34.027Z,97284.00
2023-03-20T08:20:01.806Z,97307.00
2023-03-20T08:22:29.307Z,97302.00
2023-03-20T08:24:56.458Z,97309.00
2023-03-20T08:27:23.667Z,97296.00
2023-03-20T08:29:50.872Z,97304.00
2023-03-20T08:32:18.704Z,97304.00
2023-03-20T08:34:46.028Z,97304.00
2023-03-20T08:37:13.903Z,97318.00
2023-03-20T08:39:41.079Z,97313.00
2023-03-20T08:42:08.370Z,97306.00
2023-03-20T08:44:35.865Z,97316.00
2023-03-20T08:47:04.452Z,97323.00
2023-03-20T08:49:31.805Z,97315.00
2023-03-20T08:52:00.444Z,97324.00
2023-03-20T08:54:27.704Z,97305.00
2023-03-20T08:56:55.446Z,97322.00
2023-03-20T08:59:23.575Z,97325.00
2023-03-20T09:01:50.687Z,97327.00
2023-03-20T09:04:19.097Z,97332.00
2023-03-20T09:06:46.032Z,97320.00
2023-03-20T09:09:16.019Z,97313.00
2023-03-20T09:11:43.003Z,97324.00
2023-03-20T09:14:09.951Z,97322.00
2023-03-20T09:16:37.131Z,97321.00
2023-03-20T09:19:06.893Z,97324.00
2023-03-20T09:21:33.649Z,97317.00
2023-03-20T09:24:00.811Z,97314.00
2023-03-20T09:26:28.966Z,97327.00
2023-03-20T09:28:55.874Z,97323.00
2023-03-20T09:31:23.552Z,97322.00
2023-03-20T09:33:50.426Z,97327.00
2023-03-20T09:36:17.581Z,97329.00
2023-03-20T09:38:44.637Z,97318.00
2023-03-20T09:41:28.509Z,97323.00
2023-03-20T09:44:36.210Z,97323.00
2023-03-20T09:47:28.080Z,97335.00
2023-03-20T09:50:29.533Z,97317.00
2023-03-20T09:53:12.345Z,97314.00
2023-03-20T09:55:44.382Z,97304.00
2023-03-20T09:58:34.456Z,97311.00
2023-03-20T10:01:04.443Z,97302.00
2023-03-20T10:03:49.845Z,97299.00
2023-03-20T10:06:17.912Z,97300.00
2023-03-20T10:08:46.186Z,97297.00
2023-03-20T10:12:04.748Z,97297.00
2023-03-20T10:15:02.796Z,97292.00
2023-03-20T10:18:04.244Z,97303.00
2023-03-20T10:20:50.705Z,97309.00
2023-03-20T10:23:47.431Z,97307.00
2023-03-20T10:26:19.187Z,97310.00
2023-03-20T10:29:06.802Z,97318.00
2023-03-20T10:32:01.399Z,97319.00
2023-03-20T10:35:20.794Z,97316.00
2023-03-20T10:38:25.777Z,97315.00
2023-03-20T10:40:57.845Z,97301.00
2023-03-20T10:43:39.411Z,97303.00
2023-03-20T10:46:33.817Z,97307.00
2023-03-20T10:49:16.075Z,97305.00
2023-03-20T10:51:52.609Z,97305.00
2023-03-20T10:54:35.372Z,97289.00
2023-03-20T10:57:06.683Z,97291.00
2023-03-20T10:59:49.714Z,97294.00
2023-03-20T11:02:20.348Z,97283.00
2023-03-20T11:04:47.590Z,97282.00
2023-03-20T11:07:24.386Z,97288.00
2023-03-20T11:10:10.545Z,97281.00
2023-03-20T11:12:44.287Z,97282.00
2023-03-20T11:15:30.246Z,97276.00
2023-03-20T11:18:04.586Z,97282.00
2023-03-20T11:21:00.857Z,97278.00
2023-03-20T11:23:32.981Z,97282.00
2023-03-20T11:26:18.606Z,97281.00
2023-03-20T11:28:54.034Z,97287.00
2023-03-20T11:31:38.435Z,97286.00
2023-03-20T11:34:15.366Z,97282.00
2023-03-20T11:37:10.138Z,97277.00
2023-03-20T11:39:40.392Z,97276.00
2023-03-20T11:42:26.376Z,97280.00
2023-03-20T11:45:03.850Z,97273.00
2023-03-20T11:47:35.204Z,97275.00
2023-03-20T11:50:07.554Z,97268.00
2023-03-20T11:52:40.048Z,97277.00
2023-03-20T11:55:35.936Z,97269.00
2023-03-20T11:58:06.135Z,97269.00
2023-03-20T12:00:40.439Z,97273.00
2023-03-20T12:04:04.588Z,97278.00
2023-03-20T12:07:18.412Z,97273.00
2023-03-20T12:09:53.415Z,97282.00
2023-03-20T12:12:37.336Z,97271.00
2023-03-20T12:15:17.292Z,97265.00
2023-03-20T12:17:57.233Z,97265.00
2023-03-20T12:20:53.091Z,97253.00
2023-03-20T12:23:30.719Z,97260.00
2023-03-20T12:26:34.091Z,97260.00
2023-03-20T12:29:33.187Z,97262.00
2023-03-20T12:32:14.355Z,97259.00
2023-03-20T12:34:47.119Z,97263.00
2023-03-20T12:37:18.297Z,97252.00
2023-03-20T12:40:00.194Z,97244.00
2023-03-20T12:42:42.875Z,97246.00
2023-03-20T12:45:18.686Z,97255.00
2023-03-20T12:48:25.039Z,97252.00
2023-03-20T12:51:04.787Z,97247.00
2023-03-20T12:54:07.131Z,97247.00
2023-03-20T12:57:03.490Z,97235.00
2023-03-20T12:59:48.388Z,97246.00
2023-03-20T13:02:31.738Z,97242.00
2023-03-20T13:05:10.674Z,97242.00
2023-03-20T13:07:58.587Z,97232.00
2023-03-20T13:10:39.636Z,97232.00
2023-03-20T13:13:27.991Z,97226.00
2023-03-20T13:16:19.939Z,97229.00
2023-03-20T13:19:27.397Z,97217.00
2023-03-20T13:22:15.038Z,97224.00
2023-03-20T13:24:51.022Z,97214.00
2023-03-20T13:27:48.795Z,97221.00
2023-03-20T13:30:28.216Z,97214.00
2023-03-20T13:33:18.887Z,97217.00
2023-03-20T13:36:15.335Z,97210.00
2023-03-20T13:38:49.646Z,97210.00
2023-03-20T13:41:17.920Z,97207.00
2023-03-20T13:43:57.199Z,97207.00
2023-03-20T13:46:35.797Z,97198.00
2023-03-20T13:49:40.205Z,97209.00
2023-03-20T13:52:17.452Z,97209.00
2023-03-20T13:55:03.161Z,97213.00
2023-03-20T13:57:48.672Z,97203.00
2023-03-20T14:00:40.055Z,97206.00
2023-03-20T14:03:38.483Z,97202.00
2023-03-20T14:06:50.375Z,97202.00
2023-03-20T14:09:43.956Z,97197.00
2023-03-20T14:12:14.343Z,97195.00
2023-03-20T14:14:49.385Z,97204.00
2023-03-20T14:17:30.970Z,97210.00
2023-03-20T14:20:11.621Z,97203.00
2023-03-20T14:22:40.963Z,97198.00
2023-03-20T14:25:20.121Z,97192.00
2023-03-20T14:28:07.719Z,97204.00
2023-03-20T14:30:41.615Z,97202.00
2023-03-20T14:33:26.820Z,97197.00
2023-03-20T14:36:18.932Z,97196.00
2023-03-20T14:38:59.342Z,97202.00
2023-03-20T14:42:02.738Z,97201.00
2023-03-20T14:45:06.500Z,97209.00
2023-03-20T14:48:02.024Z,97203.00
2023-03-20T14:50:39.966Z,97206.00
2023-03-20T14:53:21.485Z,97198.00
2023-03-20T14:55:53.979Z,97201.00
2023-03-20T14:59:01.708Z,97203.00
2023-03-20T15:01:46.131Z,97194.00
2023-03-20T15:04:30.281Z,97190.00
2023-03-20T15:07:15.372Z,97200.00
2023-03-20T15:09:45.647Z,97194.00
2023-03-20T15:12:17.771Z,97192.00
2023-03-20T15:14:54.214Z,97188.00
2023-03-20T15:17:28.723Z,97179.00
2023-03-20T15:20:07.537Z,97178.00
2023-03-20T15:22:34.709Z,97186.00
2023-03-20T15:25:01.557Z,97183.00
2023-03-20T15:27:29.730Z,97183.00
2023-03-20T15:30:02.401Z,97183.00
2023-03-20T15:32:29.614Z,97177.00
2023-03-20T15:34:56.590Z,97182.00
2023-03-20T15:37:24.957Z,97177.00
2023-03-20T15:39:59.187Z,97184.00
2023-03-20T15:42:27.535Z,97184.00
2023-03-20T15:44:55.785Z,97179.00
2023-03-20T15:47:25.921Z,97186.00
2023-03-20T15:50:00.190Z,97182.00
2023-03-20T15:52:52.964Z,97181.00
2023-03-20T15:55:23.648Z,97183.00
2023-03-20T15:57:53.969Z,97183.00
2023-03-20T16:00:26.510Z,97184.00
2023-03-20T16:02:53.810Z,97182.00
2023-03-20T16:05:26.304Z,97176.00
2023-03-20T16:07:53.573Z,97180.00
2023-03-20T16:10:29.964Z,97176.00
2023-03-20T16:12:57.732Z,97182.00
2023-03-20T16:15:29.723Z,97177.00
2023-03-20T16:18:00.282Z,97175.00
2023-03-20T16:20:33.390Z,97177.00
2023-03-20T16:23:02.751Z,97176.00
2023-03-20T16:25:31.096Z,97178.00
2023-03-20T16:28:00.595Z,97178.00
2023-03-20T16:30:31.861Z,97180.00
2023-03-20T16:33:05.910Z,97184.00
2023-03-20T16:35:44.593Z,97189.00
2023-03-20T16:38:30.561Z,97189.00
2023-03-20T16:41:21.772Z,97185.00
2023-03-20T16:43:52.365Z,97186.00
2023-03-20T16:46:26.442Z,97186.00
2023-03-20T16:49:49.406Z,97191.00
2023-03-20T16:52:17.814Z,97185.00
2023-03-20T16:54:45.379Z,97183.00
2023-03-20T16:57:18.398Z,97195.00
2023-03-20T16:59:45.779Z,97197.00
2023-03-20T17:02:30.050Z,97188.00
2023-03-20T17:05:05.144Z,97195.00
2023-03-20T17:07:32.458Z,97190.00
2023-03-20T17:10:20.444Z,97196.00
2023-03-20T17:12:51.349Z,97202.00
2023-03-20T17:15:22.986Z,97201.00
2023-03-20T17:17:51.588Z,97204.00
2023-03-20T17:20:28.139Z,97196.00
2023-03-20T17:22:55.145Z,97196.00
2023-03-20T17:25:22.226Z,97202.00
2023-03-20T17:27:49.096Z,97197.00
2023-03-20T17:30:22.501Z,97202.00
2023-03-20T17:32:49.710Z,97198.00
2023-03-20T17:35:17.313Z,97205.00
2023-03-20T17:37:44.512Z,97208.00
2023-03-20T17:40:25.227Z,97200.00
2023-03-20T17:42:52.379Z,97204.00
2023-03-20T17:45:20.837Z,97203.00
2023-03-20T17:47:48.779Z,97205.00
2023-03-20T17:50:24.562Z,97202.00
2023-03-20T17:52:51.572Z,97207.00
2023-03-20T17:55:18.480Z,97212.00
2023-03-20T17:57:46.275Z,97220.00
2023-03-20T18:00:23.014Z,97221.00
2023-03-20T18:02:50.480Z,97213.00
2023-03-20T18:05:17.922Z,97221.00
2023-03-20T18:07:44.856Z,97219.00
2023-03-20T18:10:32.156Z,97211.00
2023-03-20T18:12:59.632Z,97214.00
2023-03-20T18:15:26.595Z,97215.00
2023-03-20T18:17:53.445Z,97230.00
2023-03-20T18:20:31.193Z,97238.00
2023-03-20T18:22:58.338Z,97227.00
2023-03-20T18:25:26.120Z,97225.00
2023-03-20T18:27:54.910Z,97239.00
2023-03-20T18:30:36.450Z,97229.00
2023-03-20T18:33:04.687Z,97239.00
2023-03-20T18:35:32.217Z,97233.00
2023-03-20T18:37:59.664Z,97230.00
2023-03-20T18:40:34.353Z,97227.00
2023-03-20T18:43:01.623Z,97225.00
2023-03-20T18:45:30.217Z,97230.00
2023-03-20T18:47:58.335Z,97232.00
2023-03-20T18:50:29.704Z,97226.00
2023-03-20T18:52:58.827Z,97219.00
2023-03-20T18:55:28.272Z,97225.00
2023-03-20T18:57:56.217Z,97229.00
2023-03-20T19:00:30.764Z,97235.00
2023-03-20T19:02:57.681Z,97229.00
2023-03-20T19:05:27.564Z,97225.00
2023-03-20T19:07:56.184Z,97231.00
2023-03-20T19:10:43.951Z,97234.00
2023-03-20T19:13:16.927Z,97227.00
2023-03-20T19:15:44.783Z,97228.00
2023-03-20T19:18:24.029Z,97245.00
2023-03-20T19:20:56.755Z,97235.00
2023-03-20T19:23:25.897Z,97234.00
2023-03-20T19:25:54.762Z,97227.00
2023-03-20T19:28:38.659Z,97245.00
2023-03-20T19:31:09.150Z,97238.00
2023-03-20T19:33:37.236Z,97244.00
2023-03-20T19:36:05.286Z,97253.00
2023-03-20T19:38:33.507Z,97240.00
2023-03-20T19:41:02.514Z,97246.00
2023-03-20T19:43:29.613Z,97244.00
2023-03-20T19:45:59.187Z,97241.00
2023-03-20T19:48:46.097Z,97256.00
2023-03-20T19:51:27.358Z,97255.00
2023-03-20T19:53:55.689Z,97254.00
2023-03-20T19:56:23.915Z,97255.00
2023-03-20T19:58:50.818Z,97248.00
2023-03-20T20:01:25.182Z,97245.00
2023-03-20T20:03:58.190Z,97245.00
2023-03-20T20:06:31.159Z,97239.00
2023-03-20T20:09:00.948Z,97248.00
2023-03-20T20:11:28.098Z,97231.00
2023-03-20T20:14:06.748Z,97224.00
2023-03-20T20:16:39.896Z,97234.00
2023-03-20T20:19:07.630Z,97245.00
2023-03-20T20:24:21.523Z,97235.00
2023-03-20T20:27:07.037Z,97244.00
2023-03-20T20:29:38.213Z,97241.00
2023-03-20T20:32:05.516Z,97243.00
2023-03-20T20:40:08.892Z,97235.00
2023-03-20T20:42:37.201Z,97230.00
2023-03-20T20:45:07.245Z,97232.00
2023-03-20T20:47:34.387Z,97239.00
2023-03-20T20:50:03.948Z,97231.00
2023-03-20T20:52:34.892Z,97238.00
2023-03-20T20:55:21.240Z,97240.00
2023-03-20T20:57:50.036Z,97252.00
2023-03-20T21:00:18.381Z,97248.00
2023-03-20T21:02:45.342Z,97244.00
2023-03-20T21:05:15.028Z,97249.00
2023-03-20T21:07:44.484Z,97247.00
2023-03-20T21:10:16.591Z,97241.00
2023-03-20T21:12:58.089Z,97235.00
2023-03-20T21:15:26.618Z,97246.00
2023-03-20T21:18:00.581Z,97244.00
2023-03-20T21:20:28.813Z,97243.00
2023-03-20T21:22:55.641Z,97248.00
2023-03-20T21:25:36.355Z,97247.00
2023-03-20T21:28:06.628Z,97241.00
2023-03-20T21:30:33.752Z,97246.00
2023-03-20T21:33:00.912Z,97230.00
2023-03-20T21:35:28.669Z,97234.00
2023-03-20T21:40:43.100Z,97239.00
2023-03-20T21:43:11.325Z,97235.00
2023-03-20T21:48:58.707Z,97246.00
2023-03-20T22:00:14.188Z,97231.00
2023-03-20T22:02:26.421Z,97238.00
2023-03-20T22:16:58.173Z,97239.00
2023-03-20T22:22:37.397Z,97224.00
2023-03-20T22:25:14.538Z,97237.00
2023-03-20T22:27:58.482Z,97232.00
2023-03-20T22:30:58.030Z,97238.00
2023-03-20T22:33:42.443Z,97239.00
2023-03-20T22:44:50.668Z,97242.00
2023-03-20T22:46:53.984Z,97234.00
2023-03-20T22:49:20.834Z,97228.00
2023-03-20T22:52:05.098Z,97223.00
2023-03-20T22:54:34.612Z,97225.00
2023-03-20T22:57:01.718Z,97214.00
2023-03-20T22:59:28.660Z,97220.00
2023-03-20T23:01:55.782Z,97221.00
2023-03-20T23:04:22.614Z,97217.00
2023-03-20T23:06:49.509Z,97211.00
2023-03-20T23:09:16.569Z,97224.00
2023-03-20T23:11:43.831Z,97223.00
2023-03-20T23:14:20.529Z,97224.00
2023-03-20T23:16:48.438Z,97224.00
2023-03-20T23:19:15.388Z,97227.00
2023-03-20T23:21:42.240Z,97227.00
2023-03-20T23:24:09.726Z,97224.00
2023-03-20T23:26:36.521Z,97228.00
2023-03-20T23:29:03.550Z,97230.00
2023-03-20T23:31:30.436Z,97228.00
2023-03-20T23:33:58.201Z,97218.00
2023-03-20T23:36:36.051Z,97222.00
2023-03-20T23:39:06.600Z,97219.00
2023-03-20T23:42:04.687Z,97223.00
2023-03-20T23:44:21.110Z,97220.00
2023-03-20T23:46:48.454Z,97216.00
2023-03-20T23:49:16.617Z,97215.00
2023-03-20T23:51:43.852Z,97221.00
2023-03-20T23:54:11.628Z,97212.00
2023-03-20T23:56:38.906Z,97211.00
2023-03-20T23:59:18.653Z,97209.00
